createdAt,value
2022-08-20T00:02:09.819Z,16.70
2022-08-20T00:04:36.816Z,15.13
2022-08-20T00:07:06.368Z,13.93
2022-08-20T00:09:36.545Z,13.67
2022-08-20T00:12:05.302Z,12.77
2022-08-20T00:14:34.106Z,16.83
2022-08-20T00:17:01.586Z,13.63
2022-08-20T00:19:28.990Z,14.13
2022-08-20T00:21:58.374Z,13.17
2022-08-20T00:24:26.094Z,12.70
2022-08-20T00:26:53.049Z,23.23
2022-08-20T00:29:20.503Z,16.03
2022-08-20T00:31:50.085Z,11.90
2022-08-20T00:34:16.709Z,14.87
2022-08-20T00:36:43.316Z,14.37
2022-08-20T00:39:09.920Z,13.13
2022-08-20T00:41:36.553Z,16.77
2022-08-20T00:44:28.047Z,20.33
2022-08-20T00:46:54.936Z,16.47
2022-08-20T00:49:25.935Z,14.47
2022-08-20T00:51:58.473Z,15.00
2022-08-20T00:54:27.996Z,15.23
2022-08-20T00:57:03.723Z,16.87
2022-08-20T00:59:33.294Z,14.17
2022-08-20T01:02:01.667Z,15.77
2022-08-20T01:04:31.554Z,14.20
2022-08-20T01:06:58.128Z,13.50
2022-08-20T01:09:50.055Z,13.90
2022-08-20T01:12:13.702Z,14.93
2022-08-20T01:14:45.393Z,14.07
2022-08-20T01:17:17.878Z,15.33
2022-08-20T01:20:10.614Z,11.60
2022-08-20T01:23:14.140Z,11.97
2022-08-20T01:25:49.248Z,11.53
2022-08-20T01:28:19.772Z,11.77
2022-08-20T01:30:46.488Z,11.27
2022-08-20T01:33:13.701Z,11.60
2022-08-20T01:35:42.524Z,11.23
2022-08-20T01:38:09.807Z,11.83
2022-08-20T01:40:58.087Z,12.17
2022-08-20T01:43:24.984Z,11.63
2022-08-20T01:45:53.348Z,12.97
2022-08-20T01:48:20.329Z,13.27
2022-08-20T01:51:02.186Z,12.30
2022-08-20T01:53:34.944Z,12.83
2022-08-20T01:56:04.493Z,12.87
2022-08-20T01:58:33.484Z,12.50
2022-08-20T02:01:00.107Z,17.57
2022-08-20T02:03:27.055Z,13.80
2022-08-20T02:08:07.003Z,16.73
2022-08-20T02:10:35.839Z,16.80
2022-08-20T02:13:02.438Z,15.73
2022-08-20T02:15:30.775Z,15.17
2022-08-20T02:18:07.996Z,14.93
2022-08-20T02:20:35.895Z,15.83
2022-08-20T02:23:05.449Z,15.80
2022-08-20T02:25:34.129Z,14.70
2022-08-20T02:28:09.226Z,16.93
2022-08-20T02:30:43.042Z,15.90
2022-08-20T02:33:13.548Z,15.90
2022-08-20T02:35:42.841Z,17.07
2022-08-20T02:38:10.920Z,16.10
2022-08-20T02:40:37.765Z,13.53
2022-08-20T02:43:05.176Z,14.63
2022-08-20T02:45:37.400Z,14.03
2022-08-20T02:48:05.270Z,14.53
2022-08-20T02:50:33.318Z,14.43
2022-08-20T02:52:59.937Z,13.57
2022-08-20T02:55:28.090Z,13.23
2022-08-20T02:58:00.128Z,12.60
2022-08-20T03:00:31.265Z,13.53
2022-08-20T03:03:05.449Z,11.33
2022-08-20T03:05:32.020Z,13.00
2022-08-20T03:07:58.637Z,17.50
2022-08-20T03:10:30.289Z,12.23
2022-08-20T03:12:56.993Z,13.53
2022-08-20T03:15:23.961Z,16.23
2022-08-20T03:17:50.854Z,13.40
2022-08-20T03:20:17.494Z,15.57
2022-08-20T03:22:49.423Z,13.80
2022-08-20T03:25:16.867Z,15.97
2022-08-20T03:27:44.353Z,13.27
2022-08-20T03:30:14.598Z,15.70
2022-08-20T03:32:41.672Z,16.27
2022-08-20T03:35:12.187Z,17.53
2022-08-20T03:37:39.478Z,17.20
2022-08-20T03:40:15.698Z,16.83
2022-08-20T03:42:43.600Z,16.77
2022-08-20T03:45:15.039Z,19.03
2022-08-20T03:47:44.025Z,15.37
2022-08-20T03:50:14.802Z,17.30
2022-08-20T03:52:50.583Z,17.27
2022-08-20T03:55:17.321Z,17.77
2022-08-20T03:57:46.308Z,16.53
2022-08-20T04:00:16.295Z,17.73
2022-08-20T04:02:42.845Z,18.67
2022-08-20T04:05:10.243Z,18.93
2022-08-20T04:07:38.150Z,17.87
2022-08-20T04:10:09.975Z,18.87
2022-08-20T04:12:51.360Z,19.50
2022-08-20T04:15:21.253Z,21.17
2022-08-20T04:17:54.371Z,21.97
2022-08-20T04:20:24.151Z,26.37
2022-08-20T04:22:58.794Z,18.87
2022-08-20T04:25:29.892Z,19.10
2022-08-20T04:27:58.417Z,18.93
2022-08-20T04:30:25.889Z,18.13
2022-08-20T04:32:53.364Z,18.27
2022-08-20T04:35:21.298Z,18.67
2022-08-20T04:37:48.453Z,17.83
2022-08-20T04:40:37.601Z,17.40
2022-08-20T04:43:05.282Z,17.20
2022-08-20T04:45:33.070Z,16.97
2022-08-20T04:48:09.558Z,17.47
2022-08-20T04:50:40.450Z,15.20
2022-08-20T04:53:09.648Z,16.43
2022-08-20T04:55:39.349Z,15.97
2022-08-20T04:58:10.808Z,15.70
2022-08-20T05:00:37.919Z,17.20
2022-08-20T05:03:07.100Z,17.80
2022-08-20T05:05:36.751Z,15.37
2022-08-20T05:08:05.263Z,17.10
2022-08-20T05:10:42.423Z,16.63
2022-08-20T05:13:09.578Z,16.43
2022-08-20T05:15:38.834Z,16.83
2022-08-20T05:18:07.998Z,16.23
2022-08-20T05:20:42.384Z,17.77
2022-08-20T05:23:11.821Z,17.20
2022-08-20T05:25:41.086Z,17.97
2022-08-20T05:28:12.715Z,20.80
2022-08-20T05:30:45.517Z,18.90
2022-08-20T05:33:18.951Z,18.40
2022-08-20T05:35:47.277Z,17.70
2022-08-20T05:38:21.322Z,17.57
2022-08-20T05:40:48.520Z,17.47
2022-08-20T05:43:15.797Z,18.03
2022-08-20T05:45:44.646Z,18.27
2022-08-20T05:48:16.284Z,18.17
2022-08-20T05:50:45.840Z,17.50
2022-08-20T05:53:12.453Z,18.17
2022-08-20T05:55:39.877Z,20.33
2022-08-20T05:58:14.286Z,18.87
2022-08-20T06:00:40.927Z,20.07
2022-08-20T06:03:25.832Z,17.07
2022-08-20T06:05:52.493Z,21.10
2022-08-20T06:08:19.026Z,19.60
2022-08-20T06:10:46.341Z,18.07
2022-08-20T06:13:13.987Z,18.83
2022-08-20T06:15:41.268Z,19.93
2022-08-20T06:18:27.392Z,19.30
2022-08-20T06:20:54.144Z,19.03
2022-08-20T06:23:20.847Z,21.53
2022-08-20T06:25:50.197Z,19.67
2022-08-20T06:28:17.656Z,18.50
2022-08-20T06:30:44.357Z,20.47
2022-08-20T06:33:10.905Z,23.30
2022-08-20T06:35:37.921Z,18.00
2022-08-20T06:38:05.936Z,19.87
2022-08-20T06:40:34.333Z,20.87
2022-08-20T06:43:01.114Z,21.07
2022-08-20T06:45:31.423Z,25.73
2022-08-20T06:48:01.653Z,21.00
2022-08-20T06:50:32.446Z,20.93
2022-08-20T06:53:00.082Z,23.47
2022-08-20T06:55:27.025Z,23.63
2022-08-20T06:58:01.847Z,24.57
2022-08-20T07:00:31.554Z,21.97
2022-08-20T07:03:00.542Z,19.20
2022-08-20T07:05:28.972Z,24.10
2022-08-20T07:07:55.871Z,19.27
2022-08-20T07:10:24.862Z,20.33
2022-08-20T07:12:52.003Z,20.57
2022-08-20T07:15:21.980Z,22.60
2022-08-20T07:17:58.751Z,19.63
2022-08-20T07:20:28.781Z,20.87
2022-08-20T07:22:55.501Z,18.33
2022-08-20T07:25:22.434Z,17.13
2022-08-20T07:27:50.224Z,15.27
2022-08-20T07:30:56.571Z,16.33
2022-08-20T07:33:26.012Z,15.37
2022-08-20T07:35:56.462Z,16.43
2022-08-20T07:38:25.486Z,17.63
2022-08-20T07:40:54.328Z,14.90
2022-08-20T07:43:24.133Z,16.47
2022-08-20T07:45:52.086Z,17.17
2022-08-20T07:48:31.458Z,20.70
2022-08-20T07:51:01.400Z,23.57
2022-08-20T07:53:31.148Z,26.37
2022-08-20T07:56:03.280Z,27.40
2022-08-20T07:58:33.357Z,28.13
2022-08-20T08:01:01.030Z,32.47
2022-08-20T08:03:39.545Z,30.43
2022-08-20T08:06:18.254Z,32.47
2022-08-20T08:09:17.683Z,30.23
2022-08-20T08:11:52.424Z,31.20
2022-08-20T08:14:23.759Z,36.10
2022-08-20T08:16:51.117Z,32.77
2022-08-20T08:19:18.923Z,31.10
2022-08-20T08:21:45.554Z,29.10
2022-08-20T08:24:18.043Z,29.40
2022-08-20T08:26:50.076Z,30.10
2022-08-20T08:29:17.141Z,28.73
2022-08-20T08:31:43.809Z,25.27
2022-08-20T08:34:10.403Z,26.63
2022-08-20T08:36:39.305Z,25.73
2022-08-20T08:39:06.695Z,25.53
2022-08-20T08:41:41.372Z,28.87
2022-08-20T08:44:21.779Z,30.43
2022-08-20T08:46:50.658Z,28.40
2022-08-20T08:49:22.613Z,27.53
2022-08-20T08:51:56.702Z,28.87
2022-08-20T08:54:25.539Z,28.23
2022-08-20T08:56:53.379Z,29.53
2022-08-20T08:59:21.585Z,26.90
2022-08-20T09:01:55.573Z,23.50
2022-08-20T09:04:31.732Z,28.47
2022-08-20T09:06:59.874Z,23.07
2022-08-20T09:09:29.607Z,27.30
2022-08-20T09:12:04.509Z,23.43
2022-08-20T09:14:31.445Z,23.43
2022-08-20T09:16:58.320Z,27.03
2022-08-20T09:19:24.930Z,26.40
2022-08-20T09:21:51.594Z,20.47
2022-08-20T09:24:20.467Z,21.43
2022-08-20T09:26:47.127Z,24.17
2022-08-20T09:29:13.706Z,21.60
2022-08-20T09:31:41.656Z,19.07
2022-08-20T09:34:08.676Z,21.53
2022-08-20T09:36:35.519Z,18.27
2022-08-20T09:39:03.127Z,23.30
2022-08-20T09:41:33.713Z,20.90
2022-08-20T09:44:01.186Z,21.13
2022-08-20T09:46:27.833Z,18.50
2022-08-20T09:48:55.076Z,21.03
2022-08-20T09:51:22.840Z,20.33
2022-08-20T09:53:50.175Z,20.07
2022-08-20T09:56:17.548Z,18.53
2022-08-20T09:58:53.303Z,23.90
2022-08-20T10:01:22.633Z,18.47
2022-08-20T10:03:50.697Z,19.43
2022-08-20T10:06:20.508Z,25.20
2022-08-20T10:08:49.102Z,20.93
2022-08-20T10:11:16.187Z,20.17
2022-08-20T10:13:44.708Z,25.77
2022-08-20T10:16:11.298Z,19.87
2022-08-20T10:18:37.977Z,21.27
2022-08-20T10:21:12.725Z,17.93
2022-08-20T10:23:39.551Z,20.03
2022-08-20T10:26:08.462Z,21.27
2022-08-20T10:28:35.461Z,21.87
2022-08-20T10:31:02.061Z,22.33
2022-08-20T10:33:28.684Z,22.20
2022-08-20T10:35:59.746Z,20.37
2022-08-20T10:38:26.667Z,21.10
2022-08-20T10:40:53.225Z,20.60
2022-08-20T10:43:19.776Z,19.50
2022-08-20T10:45:46.341Z,21.47
2022-08-20T10:48:12.918Z,23.27
2022-08-20T10:50:39.438Z,20.60
2022-08-20T10:53:06.026Z,22.83
2022-08-20T10:55:32.580Z,19.33
2022-08-20T10:57:59.156Z,21.73
2022-08-20T11:00:25.809Z,20.53
2022-08-20T11:02:52.389Z,20.93
2022-08-20T11:05:18.938Z,21.53
2022-08-20T11:07:55.271Z,19.13
2022-08-20T11:10:25.841Z,20.40
2022-08-20T11:12:52.519Z,18.37
2022-08-20T11:15:19.283Z,19.73
2022-08-20T11:17:46.235Z,16.43
2022-08-20T11:20:16.217Z,17.33
2022-08-20T11:22:42.822Z,21.63
2022-08-20T11:25:09.949Z,21.57
2022-08-20T11:27:39.975Z,25.97
2022-08-20T11:30:10.673Z,19.50
2022-08-20T11:32:37.416Z,21.00
2022-08-20T11:35:24.644Z,23.30
2022-08-20T11:37:52.546Z,18.63
2022-08-20T11:40:19.637Z,18.87
2022-08-20T11:43:10.999Z,21.33
2022-08-20T11:45:37.415Z,20.93
2022-08-20T11:48:04.853Z,20.33
2022-08-20T11:50:31.477Z,20.53
2022-08-20T11:52:58.229Z,19.57
2022-08-20T11:55:30.112Z,21.13
2022-08-20T11:57:57.676Z,18.90
2022-08-20T12:00:32.754Z,18.53
2022-08-20T12:03:01.891Z,19.60
2022-08-20T12:05:30.149Z,21.70
2022-08-20T12:07:58.019Z,17.60
2022-08-20T12:10:26.816Z,18.30
2022-08-20T12:12:54.891Z,22.67
2022-08-20T12:15:21.431Z,16.83
2022-08-20T12:17:48.105Z,15.67
2022-08-20T12:20:15.771Z,16.67
2022-08-20T12:22:44.789Z,17.57
2022-08-20T12:25:11.959Z,16.40
2022-08-20T12:27:39.231Z,16.13
2022-08-20T12:30:12.533Z,15.50
2022-08-20T12:32:39.498Z,17.10
2022-08-20T12:35:07.636Z,15.73
2022-08-20T12:37:34.324Z,16.47
2022-08-20T12:40:04.385Z,15.77
2022-08-20T12:42:31.040Z,18.93
2022-08-20T12:44:58.879Z,13.13
2022-08-20T12:47:32.358Z,15.30
2022-08-20T12:50:02.125Z,16.67
2022-08-20T12:52:30.894Z,16.17
2022-08-20T12:54:58.885Z,13.47
2022-08-20T12:57:32.784Z,12.70
2022-08-20T13:00:04.208Z,15.37
2022-08-20T13:02:31.523Z,14.03
2022-08-20T13:05:04.353Z,16.53
2022-08-20T13:07:32.538Z,15.23
2022-08-20T13:09:59.935Z,13.07
2022-08-20T13:12:27.052Z,8.90
2022-08-20T13:14:53.974Z,11.13
2022-08-20T13:17:38.425Z,12.27
2022-08-20T13:20:09.523Z,10.03
2022-08-20T13:22:36.656Z,10.07
2022-08-20T13:25:04.666Z,14.13
2022-08-20T13:27:31.315Z,9.30
2022-08-20T13:29:59.188Z,8.67
2022-08-20T13:32:26.725Z,10.30
2022-08-20T13:34:53.817Z,11.93
2022-08-20T13:37:25.623Z,11.60
2022-08-20T13:39:53.804Z,9.60
2022-08-20T13:42:21.115Z,9.50
2022-08-20T13:44:48.710Z,8.90
2022-08-20T13:47:25.557Z,12.67
2022-08-20T13:50:20.363Z,8.93
2022-08-20T13:52:47.394Z,8.50
2022-08-20T13:55:18.626Z,11.77
2022-08-20T13:57:46.778Z,7.77
2022-08-20T14:00:31.533Z,4.90
2022-08-20T14:03:00.273Z,8.23
2022-08-20T14:05:26.960Z,12.57
2022-08-20T14:07:53.677Z,8.33
2022-08-20T14:10:25.374Z,11.13
2022-08-20T14:12:53.031Z,7.27
2022-08-20T14:15:19.821Z,7.17
2022-08-20T14:17:52.872Z,8.57
2022-08-20T14:20:23.893Z,9.73
2022-08-20T14:22:50.824Z,11.10
2022-08-20T14:25:19.433Z,7.80
2022-08-20T14:27:46.403Z,10.57
2022-08-20T14:30:17.863Z,9.27
2022-08-20T14:32:44.468Z,8.20
2022-08-20T14:35:11.332Z,5.90
2022-08-20T14:37:40.994Z,7.73
2022-08-20T14:40:10.665Z,6.97
2022-08-20T14:42:37.948Z,6.27
2022-08-20T14:45:06.518Z,9.87
2022-08-20T14:47:42.134Z,12.17
2022-08-20T14:50:22.687Z,9.27
2022-08-20T14:52:49.430Z,7.40
2022-08-20T14:55:18.484Z,9.90
2022-08-20T14:57:45.409Z,7.53
2022-08-20T15:00:18.063Z,10.20
2022-08-20T15:02:46.211Z,8.47
2022-08-20T15:05:13.371Z,9.27
2022-08-20T15:07:43.889Z,6.47
2022-08-20T15:10:20.221Z,7.55
2022-08-20T15:12:47.087Z,7.30
2022-08-20T15:15:16.223Z,9.65
2022-08-20T15:17:46.390Z,7.43
2022-08-20T15:20:20.497Z,7.03
2022-08-20T15:22:48.993Z,8.85
2022-08-20T15:25:18.104Z,7.55
2022-08-20T15:27:46.326Z,5.80
2022-08-20T15:30:17.035Z,10.77
2022-08-20T15:32:43.925Z,8.30
2022-08-20T15:35:11.538Z,10.27
2022-08-20T15:37:43.958Z,6.90
2022-08-20T15:40:13.593Z,7.63
2022-08-20T15:42:43.489Z,7.17
2022-08-20T15:45:14.217Z,7.27
2022-08-20T15:48:01.422Z,6.27
2022-08-20T15:50:33.806Z,6.43
2022-08-20T15:53:20.047Z,8.90
2022-08-20T15:56:04.095Z,6.17
2022-08-20T15:59:03.814Z,4.57
2022-08-20T16:01:31.067Z,5.77
2022-08-20T16:04:04.130Z,9.70
2022-08-20T16:06:33.183Z,9.23
2022-08-20T16:09:34.076Z,8.90
2022-08-20T16:12:03.057Z,6.67
2022-08-20T16:14:36.594Z,5.97
2022-08-20T16:17:09.979Z,5.83
2022-08-20T16:19:45.616Z,6.67
2022-08-20T16:22:14.684Z,8.87
2022-08-20T16:24:41.358Z,7.33
2022-08-20T16:27:29.322Z,5.27
2022-08-20T16:30:13.417Z,6.50
2022-08-20T16:32:46.253Z,5.83
2022-08-20T16:35:33.549Z,7.53
2022-08-20T16:38:30.476Z,5.77
2022-08-20T16:41:06.951Z,6.40
2022-08-20T16:43:51.239Z,6.30
2022-08-20T16:46:21.393Z,6.30
2022-08-20T16:49:13.577Z,5.70
2022-08-20T16:51:52.534Z,6.80
2022-08-20T16:54:28.285Z,6.00
2022-08-20T16:57:04.576Z,7.47
2022-08-20T16:59:32.229Z,10.27
2022-08-20T17:02:10.986Z,8.33
2022-08-20T17:04:59.841Z,10.70
2022-08-20T17:07:43.219Z,7.00
2022-08-20T17:10:34.056Z,11.73
2022-08-20T17:13:19.970Z,6.10
2022-08-20T17:16:03.685Z,8.37
2022-08-20T17:18:38.685Z,10.57
2022-08-20T17:21:30.774Z,9.30
2022-08-20T17:24:01.153Z,6.87
2022-08-20T17:26:32.502Z,11.83
2022-08-20T17:29:02.378Z,9.10
2022-08-20T17:31:38.859Z,13.13
2022-08-20T17:34:12.640Z,7.70
2022-08-20T17:36:49.566Z,7.70
2022-08-20T17:39:19.278Z,8.47
2022-08-20T17:41:52.467Z,9.30
2022-08-20T17:44:26.174Z,7.20
2022-08-20T17:46:54.222Z,7.23
2022-08-20T17:49:34.587Z,10.17
2022-08-20T17:52:05.067Z,10.77
2022-08-20T17:54:36.067Z,10.17
2022-08-20T17:57:11.329Z,10.27
2022-08-20T18:00:00.708Z,9.40
2022-08-20T18:02:29.242Z,6.90
2022-08-20T18:04:56.004Z,5.90
2022-08-20T18:07:27.348Z,6.20
2022-08-20T18:10:14.975Z,9.10
2022-08-20T18:13:18.401Z,10.67
2022-08-20T18:15:56.852Z,9.00
2022-08-20T18:18:26.688Z,8.53
2022-08-20T18:21:20.261Z,8.87
2022-08-20T18:24:11.161Z,11.37
2022-08-20T18:26:45.081Z,7.43
2022-08-20T18:29:20.062Z,6.60
2022-08-20T18:31:53.661Z,7.53
2022-08-20T18:34:21.772Z,10.87
2022-08-20T18:36:59.231Z,8.03
2022-08-20T18:39:31.617Z,9.67
2022-08-20T18:42:06.353Z,8.13
2022-08-20T18:44:38.575Z,6.73
2022-08-20T18:47:07.892Z,7.73
2022-08-20T18:49:38.855Z,8.47
2022-08-20T18:52:15.519Z,8.43
2022-08-20T18:54:50.505Z,7.10
2022-08-20T18:57:22.002Z,8.60
2022-08-20T18:59:57.356Z,7.50
2022-08-20T19:02:34.992Z,7.17
2022-08-20T19:05:08.301Z,6.50
2022-08-20T19:07:48.252Z,8.63
2022-08-20T19:10:45.457Z,7.00
2022-08-20T19:13:37.102Z,9.40
2022-08-20T19:16:14.812Z,9.57
2022-08-20T19:18:51.513Z,11.60
2022-08-20T19:21:35.544Z,9.77
2022-08-20T19:24:06.407Z,10.80
2022-08-20T19:26:41.338Z,5.00
2022-08-20T19:29:11.627Z,5.90
2022-08-20T19:31:39.108Z,10.40
2022-08-20T19:34:21.865Z,6.67
2022-08-20T19:37:27.807Z,9.13
2022-08-20T19:39:52.753Z,8.10
2022-08-20T19:42:28.413Z,7.63
2022-08-20T19:45:12.411Z,8.70
2022-08-20T19:47:54.376Z,8.53
2022-08-20T19:51:09.022Z,10.70
2022-08-20T19:53:42.110Z,9.37
2022-08-20T19:56:27.204Z,6.97
2022-08-20T19:58:59.900Z,8.80
2022-08-20T20:01:26.790Z,8.63
2022-08-20T20:04:05.776Z,6.77
2022-08-20T20:06:36.907Z,6.80
2022-08-20T20:09:22.304Z,7.80
2022-08-20T20:11:53.855Z,7.10
2022-08-20T20:14:23.525Z,7.63
2022-08-20T20:16:51.215Z,8.07
2022-08-20T20:19:27.483Z,7.30
2022-08-20T20:22:22.711Z,8.13
2022-08-20T20:25:17.994Z,6.73
2022-08-20T20:27:54.347Z,9.13
2022-08-20T20:30:33.173Z,7.03
2022-08-20T20:33:11.021Z,9.20
2022-08-20T20:35:37.626Z,9.67
2022-08-20T20:38:12.072Z,8.60
2022-08-20T20:40:54.204Z,7.37
2022-08-20T20:43:37.607Z,6.50
2022-08-20T20:46:07.330Z,8.13
2022-08-20T20:48:46.069Z,9.60
2022-08-20T20:51:25.751Z,7.00
2022-08-20T20:53:55.214Z,7.40
2022-08-20T20:56:42.169Z,6.40
2022-08-20T20:59:10.331Z,8.43
2022-08-20T21:01:48.369Z,7.03
2022-08-20T21:04:21.703Z,8.53
2022-08-20T21:06:48.977Z,8.23
2022-08-20T21:09:15.832Z,9.00
2022-08-20T21:11:42.526Z,9.27
2022-08-20T21:14:09.226Z,5.63
2022-08-20T21:16:35.778Z,7.70
2022-08-20T21:19:05.355Z,3.93
2022-08-20T21:21:32.259Z,9.00
2022-08-20T21:23:58.853Z,7.60
2022-08-20T21:26:27.635Z,8.47
2022-08-20T21:28:54.574Z,6.77
2022-08-20T21:31:21.623Z,9.13
2022-08-20T21:33:48.216Z,5.57
2022-08-20T21:36:14.867Z,7.33
2022-08-20T21:38:41.534Z,9.80
2022-08-20T21:41:08.105Z,13.07
2022-08-20T21:43:35.518Z,9.33
2022-08-20T21:46:04.496Z,10.47
2022-08-20T21:48:32.389Z,9.40
2022-08-20T21:50:59.066Z,9.13
2022-08-20T21:53:25.696Z,10.30
2022-08-20T21:55:52.339Z,8.63
2022-08-20T21:58:20.321Z,6.37
2022-08-20T22:00:59.416Z,9.03
2022-08-20T22:03:34.819Z,8.30
2022-08-20T22:06:06.795Z,5.80
2022-08-20T22:08:33.842Z,8.00
2022-08-20T22:11:01.883Z,5.37
2022-08-20T22:13:33.101Z,7.47
2022-08-20T22:16:01.919Z,7.07
2022-08-20T22:18:29.111Z,7.67
2022-08-20T22:20:55.934Z,9.53
2022-08-20T22:23:23.261Z,9.90
2022-08-20T22:25:50.351Z,8.03
2022-08-20T22:28:18.249Z,9.17
2022-08-20T22:30:45.164Z,10.43
2022-08-20T22:33:18.556Z,7.60
2022-08-20T22:35:48.598Z,7.10
2022-08-20T22:38:15.968Z,6.93
2022-08-20T22:40:43.457Z,5.23
2022-08-20T22:43:10.586Z,7.87
2022-08-20T22:45:37.816Z,7.67
2022-08-20T22:48:06.833Z,5.53
2022-08-20T22:50:33.864Z,7.20
2022-08-20T22:53:01.827Z,7.47
2022-08-20T22:55:28.424Z,8.33
2022-08-20T22:57:55.099Z,7.97
2022-08-20T23:00:24.234Z,9.57
2022-08-20T23:02:59.381Z,8.63
2022-08-20T23:05:28.382Z,10.67
2022-08-20T23:07:57.647Z,12.90
2022-08-20T23:10:26.417Z,7.17
2022-08-20T23:12:53.586Z,7.47
2022-08-20T23:15:20.226Z,11.37
2022-08-20T23:17:47.492Z,6.67
2022-08-20T23:20:17.371Z,7.10
2022-08-20T23:22:44.840Z,7.87
2022-08-20T23:25:13.217Z,6.77
2022-08-20T23:27:44.951Z,5.93
2022-08-20T23:30:12.513Z,8.50
2022-08-20T23:32:41.279Z,7.73
2022-08-20T23:35:08.974Z,6.87
2022-08-20T23:37:40.297Z,6.87
2022-08-20T23:40:08.103Z,6.57
2022-08-20T23:42:34.837Z,9.87
2022-08-20T23:45:01.599Z,10.53
2022-08-20T23:47:28.464Z,8.63
2022-08-20T23:49:55.076Z,9.03
2022-08-20T23:52:21.637Z,7.03
2022-08-20T23:54:48.310Z,6.70
2022-08-20T23:57:15.759Z,6.07
2022-08-20T23:59:47.654Z,7.07
